Tiempo atmosférico en la estación meteorológica de Estaca De Bares, A Coruña (80 m.)



Fecha
DESCASC
Temp. máxima en grados centígrados (hora)
DESCASC
Temp. mínima en grados centígrados (hora)
DESCASC
Temp. media en grados centígrados
DESCASC
Racha de viento máxima en m/sg (hora)
DESCASC
Velocidad máxima media en intervalos de 10 minutos(hora)
DESCASC
Precipitaciones diarias en mm
DESCASC
Precipitaciones de 00:00 a 06:00 en mm
DESCASC
Precipitaciones de 06:00 a 12:00 en mm
DESCASC
Precipitaciones de 12:00 a 18:00 en mm
DESCASC
Precipitaciones de 18:00 a 24:00 en mm
DESCASC
13-01-2021 11.5 (15:30) 8.2 (03:40) 9.8 8.61 (19:00) 6.67 (19:00) 0 0 0 0 0
12-01-2021 10.7 (15:00) 7.9 (09:20) 9.3 6.67 (16:30) 5.56 (16:40) 0 0 0 0 0
11-01-2021 10 (14:50) 8.5 (06:10) 9.3 18.61 (00:10) 15 (00:20) 0 0 0 0 0
10-01-2021 9.6 (12:20) 7.6 (02:10) 8.6 26.94 (00:30) 22.22 (00:30) 0 0 0 0 0
09-01-2021 9.4 (23:40) 3.7 (00:00) 6.5 30.83 (22:20) 22.5 (23:30) 6 2.6 2.8 0.2 0.4
08-01-2021 9 (13:00) 5.1 (00:00) 7 14.72 (21:40) 10.83 (02:50) 6.2 3 0 0 3.2
07-01-2021 8.5 (15:10) 4.5 (00:00) 6.5 15.28 (12:30) 11.39 (12:40) 12.8 2.6 5.2 2.8 2.2
06-01-2021 9.1 (13:30) 4.4 (00:00) 6.8 15.56 (06:00) 11.39 (04:10) 5.6 3.4 1 0 1.2
05-01-2021 8.9 (14:50) 5 (00:00) 6.9 18.33 (22:30) 13.33 (22:30) 13.8 0.8 4.8 0.8 7.4
04-01-2021 8.1 (02:50) 3.6 (00:00) 5.9 13.06 (03:30) 9.17 (08:40) 8.6 0.2 5.6 0.8 2
03-01-2021 9.5 (10:00) 6.1 (00:00) 7.8 19.72 (11:50) 11.11 (21:00) 12.8 5.6 2.8 2.6 1.8
02-01-2021 10.1 (15:30) 4.9 (00:00) 7.5 13.89 (19:20) 8.33 (02:00) 6.2 0.2 3 0.6 2.4
01-01-2021 10 (08:20) 6.4 (00:00) 8.2 18.89 (12:40) 14.72 (02:00) 5.8 1 1.6 3.2 0
31-12-2020 11.1 (07:40) 6.9 (00:00) 9 24.44 (07:20) 20.56 (07:20) 13 3.6 3.6 4.2 1.6
30-12-2020 11.4 (15:20) 7.5 (00:00) 9.4 26.67 (16:10) 16.39 (16:10) 7.4 0.2 0.2 2.8 4.2
29-12-2020 10.5 (02:40) 5.8 (00:00) 8.2 24.44 (00:10) 18.89 (02:40) 7.2 3 1.8 1.4 1
28-12-2020 11.8 (14:10) 5.6 (00:00) 8.7 39.72 (01:10) 28.33 (01:10) 10.2 6.2 1.4 1 1.6
27-12-2020 12.6 (13:10) 7.1 (00:00) 9.9 41.94 (18:00) 30.28 (21:20) 5.8 0 0 1.2 4.6
26-12-2020 11.2 (15:40) 7.3 (00:00) 9.3 11.11 (00:10) 8.61 (01:00) 0 0 0 0 0
25-12-2020 10.6 (11:50) 8.4 (00:00) 9.5 18.89 (15:00) 13.33 (07:30) 0.4 0.4 0 0 0
24-12-2020 11.2 (13:30) 8.8 (00:00) 10 18.33 (16:10) 12.22 (00:30) 7.2 0 1.4 3 2.8
23-12-2020 15.5 (00:40) 9.5 (00:00) 12.5 22.78 (09:20) 18.61 (08:10) 1.4 0 1 0.2 0.2
22-12-2020 18.6 (14:40) 13.9 (00:00) 16.3 21.11 (22:40) 14.72 (22:40) 0 0 0 0 0
21-12-2020 17.4 (15:00) 14.4 (00:00) 15.9 28.33 (00:20) 22.5 (00:20) 0.6 0.6 0 0 0
20-12-2020 15.2 (22:00) 11.2 (00:00) 13.2 27.5 (23:20) 21.94 (23:30) 0.8 0 0 0 0.8
19-12-2020 14.2 (15:10) 10 (00:00) 12.1 17.5 (01:00) 14.72 (02:10) 1.8 0.2 0.2 0.8 0.6
18-12-2020 15.5 (16:30) 12.3 (00:00) 13.9 24.17 (07:00) 18.61 (06:40) 0.6 0 0 0 0.6

Gráficas

Temp. máximas Temp. mínimas Temp. medias Precipitaciones Rachas de viento máximas Velocidades máximas media en intervalos de 10 minutos

Datos horarios

Fecha y hora oficial Temperatura (ºC) Velocidad del viento (km/h) Dirección del viento Racha (km/h) Dirección de racha Precipitación (mm) Presión (hPa) Tendencia (hPa) Humedad (%)
2021-01-16 23:00:00 11.5 42 Oeste 48 Sudoeste 0 1018.4 -0.5 94
2021-01-16 22:00:00 11.5 33 Oeste 42 Oeste 0 1018.7 0.1 94
2021-01-16 21:00:00 11.5 36 Oeste 47 Oeste 0 1019 0.7 96
2021-01-16 20:00:00 11.3 33 Oeste 40 Oeste 0 1018.9 0.8 93
2021-01-16 19:00:00 11.4 32 Oeste 38 Oeste 0 1018.6 0.6 87
2021-01-16 18:00:00 11.9 28 Oeste 34 Oeste 0 1018.3 0.2 88
2021-01-16 17:00:00 12.1 26 Oeste 35 Oeste 0 1018.1 -0.4 83
2021-01-16 16:00:00 13.4 22 Oeste 27 Oeste 0 1018 -1 67
2021-01-16 15:00:00 12.8 22 Oeste 32 Oeste 0 1018.1 -1.6 65
2021-01-16 14:00:00 11.4 27 Oeste 31 Oeste 0 1018.5 -0.8 64
2021-01-16 13:00:00 10.8 24 Oeste 27 Oeste 0 1019 -- 64
2021-01-16 12:00:00 9.3 18 Oeste 24 Oeste 0 1019.7 -- 66
2021-01-16 11:00:00 8.6 13 Oeste 22 Oeste 0 1019.3 -- 61
2021-01-16 10:00:00 8 20 Oeste 27 Oeste 0 1018.8 -- 64
2021-01-16 09:00:00 8.9 17 Oeste 27 Sudoeste 0 1018.6 -- 51
2021-01-16 08:00:00 7 21 Oeste 26 Oeste 0 1018.6 -- 76
2021-01-16 07:00:00 7.1 24 Oeste 30 Oeste 0 1018.5 -- 76
2021-01-16 06:00:00 8.1 21 Oeste 26 Oeste 0 1018.5 -- 83
2021-01-16 05:00:00 7.1 21 Oeste 26 Oeste 0 1018.6 -- 93
2021-01-16 04:00:00 7.1 11 Sur 17 Sur 0 1018.8 -- 89
2021-01-16 03:00:00 8.8 7 Sudoeste 13 Oeste 0 1019 -- 88
2021-01-16 02:00:00 8.6 8 Oeste 12 Oeste 0 1019.4 -- 90
2021-01-16 01:00:00 8.8 7 Sudoeste 12 Sudoeste 0 1019.7 -- 82
2021-01-16 00:00:00 8.4 5 Noroeste 22 Sudeste 0 1019.8 -- 87
2021-01-15 23:00:00 8 17 Sur 24 Sudeste 0 1019 -- 82
2021-01-15 22:00:00 8.1 21 Sudeste 25 Sudeste 0 1019.2 -- 92
2021-01-15 21:00:00 8.5 18 Sudeste 25 Sudeste 0 1019.6 -- 94
2021-01-15 20:00:00 9.3 19 Sudeste 24 Sudeste 0 1019.8 -- 93
2021-01-15 19:00:00 9.7 17 Sudeste 22 Sudeste 0 1019.5 -- 90
2021-01-15 18:00:00 10.1 17 Sudeste 23 Sudeste 0 1019.2 -- 83
2021-01-15 17:00:00 10.8 16 Este 20 Este 0 1019 -- 76
2021-01-15 16:00:00 11.2 15 Este 19 Este 0 1019.3 -- 78
2021-01-15 15:00:00 10.9 12 Este 17 Este 0 1019.3 -- 84
2021-01-15 14:00:00 11.4 10 Este 18 Este 0 1020.3 -- 76
2021-01-15 13:00:00 11.4 9 Sudeste 14 Sudeste 0 1020.9 -- 73
2021-01-15 12:00:00 9.5 6 Oeste 9 Este 0 1021.7 -- 99
2021-01-15 11:00:00 9.8 3 Nordeste 16 Sudeste 0 1021.2 -- 91
2021-01-15 10:00:00 8.6 14 Sudeste 20 Sudeste 0 1020.4 -- 86
2021-01-15 09:00:00 8.6 12 Sudeste 15 Sudeste 0 1020 -- 87
2021-01-15 08:00:00 9.4 5 Este 10 Sudeste 0 1019.8 -- 100
2021-01-15 07:00:00 9.1 0 Calma 5 Norte 0 1019.8 -- 100
2021-01-15 06:00:00 9.5 6 Oeste 14 Sudeste 0 1019.9 -- 100
2021-01-15 05:00:00 9.6 13 Sudeste 16 Sudeste 0 1020 -- 99
2021-01-15 04:00:00 9.4 15 Sudeste 17 Sudeste 0 1020 -- 100
2021-01-15 03:00:00 10 12 Sudeste 14 Sudeste 0 1020.1 -- 100
2021-01-15 02:00:00 10.7 13 Este 18 Nordeste 0 1020.5 -- 87
2021-01-15 01:00:00 10.9 9 Nordeste 17 Nordeste 0 1020.7 -- 95
2021-01-15 00:00:00 10.7 10 Nordeste 17 Este 0 1020.5 -- 100
2021-01-14 23:00:00 11 9 Nordeste 20 Nordeste 0 1020.3 -- 100
2021-01-14 22:00:00 10.9 8 Oeste 10 Oeste 0 1019.9 -- 100
2021-01-14 21:00:00 11 11 Oeste 16 Oeste 0 1019.9 -- 100
2021-01-14 20:00:00 11.1 14 Oeste 18 Oeste 0 1019.4 -- 100
2021-01-14 19:00:00 10.9 14 Oeste 20 Oeste 0 1019.3 -- 100
2021-01-14 18:00:00 11.1 15 Oeste 29 Oeste 0.2 1019.3 -- 100
2021-01-14 17:00:00 11.2 24 Oeste 36 Oeste 0 1019 -- 100
2021-01-14 16:00:00 12.1 30 Oeste 35 Oeste 0 1018.5 -- 84
2021-01-14 15:00:00 12.9 31 Oeste 42 Oeste 0 1018.7 -- 81
2021-01-14 14:00:00 12.1 36 Oeste 42 Oeste 0 1019 -- 81
2021-01-14 13:00:00 11.6 34 Oeste 44 Oeste 0 1019.5 -- 82
2021-01-14 12:00:00 11.2 33 Oeste 42 Oeste 0 1019.6 -- 81
2021-01-14 11:00:00 10.8 35 Oeste 47 Sudoeste 0 1019.4 -- 80
2021-01-14 10:00:00 10.3 39 Oeste 47 Oeste 0 1018.8 -- 79
2021-01-14 09:00:00 10.5 35 Oeste 44 Oeste 0 1018.9 -- 77
2021-01-14 08:00:00 10.4 35 Oeste 45 Oeste 0 1018.8 -- 77
2021-01-14 07:00:00 10.4 33 Oeste 40 Oeste 0 1018.9 -- 75
2021-01-14 06:00:00 10.4 34 Oeste 42 Oeste 0 1019 -- 74
2021-01-14 05:00:00 10.2 32 Oeste 41 Oeste 0 1019 -- 74
2021-01-14 04:00:00 10 28 Oeste 34 Oeste 0 1019.4 -- 75
2021-01-14 03:00:00 9.6 24 Oeste 31 Sudoeste 0 1019.8 -- 74
2021-01-14 02:00:00 9.2 26 Sudoeste 32 Oeste 0 1020.2 -- 74
2021-01-14 01:00:00 9.3 23 Sudoeste 30 Sudoeste 0 1020.9 -- 74
2021-01-14 00:00:00 9.1 22 Sudoeste 28 Sudoeste 0 1021.1 -- 74
2021-01-13 23:00:00 8.9 22 Sudoeste 29 Sudoeste 0 1021.3 -- 74
2021-01-13 22:00:00 9.1 22 Oeste 28 Sudoeste 0 1021 -- 75
2021-01-13 21:00:00 9.3 19 Sudoeste 25 Sudoeste 0 1020.9 -- 77
2021-01-13 20:00:00 9.7 17 Oeste 26 Oeste 0 1020.7 -- 77
2021-01-13 19:00:00 9.9 24 Oeste 31 Oeste 0 1020.4 -- 73
2021-01-13 18:00:00 9.9 19 Oeste 23 Oeste 0 1020.2 -- 73
2021-01-13 17:00:00 10.1 15 Oeste 20 Noroeste 0 1020.1 -- 71
2021-01-13 16:00:00 10.7 11 Oeste 19 Oeste 0 1019.9 -- 68
2021-01-13 15:00:00 10.5 10 Oeste 15 Oeste 0 1019.9 -- 66
2021-01-13 14:00:00 10.4 9 Oeste 11 Oeste 0 1020.7 -- 65
2021-01-13 13:00:00 9.9 9 Oeste 17 Noroeste 0 1021.3 -- 69
2021-01-13 12:00:00 10.9 8 Oeste 12 Oeste 0 1021.6 -- 64
2021-01-13 11:00:00 10.1 5 Sudoeste 10 Oeste 0 1021.7 -- 72
2021-01-13 10:00:00 9.3 8 Oeste 11 Oeste 0 1021.4 -- 75
2021-01-13 09:00:00 8.7 7 Sur 14 Sudoeste 0 1021.1 -- 71
2021-01-13 08:00:00 8.7 10 Sur 16 Sur 0 1020.7 -- 70
2021-01-13 07:00:00 8.7 13 Sur 16 Sur 0 1020.7 -- 70
2021-01-13 06:00:00 9.3 12 Sudoeste 17 Sudoeste 0 1020.7 -- 68
2021-01-13 05:00:00 9.2 11 Sudoeste 18 Oeste 0 1020.9 -- 68
2021-01-13 04:00:00 8.9 8 Oeste 14 Sudoeste 0 1021 -- 71
2021-01-13 03:00:00 8.9 11 Sudoeste 19 Oeste 0 1020.7 -- 69
2021-01-13 02:00:00 9.2 8 Sudoeste 14 Sudoeste 0 1020.6 -- 68
2021-01-13 01:00:00 9.4 9 Sudoeste 14 Sudoeste 0 1021.3 -- 67
2021-01-13 00:00:00 9.2 14 Sudoeste 22 Sudoeste 0 1021.3 -- 73
2021-01-12 23:00:00 9.4 14 Oeste 17 Oeste 0 1021.2 -- 73
2021-01-12 22:00:00 9.5 13 Oeste 15 Oeste 0 1021.2 -- 72
2021-01-12 21:00:00 9.5 12 Sudoeste 24 Oeste 0 1021.1 -- 74
2021-01-12 20:00:00 9.5 18 Oeste 23 Oeste 0 1020.9 -- 72
2021-01-12 19:00:00 9.5 19 Sudoeste 23 Sudoeste 0 1020.6 -- 72
2021-01-12 18:00:00 9.7 17 Oeste 24 Oeste 0 1020.5 -- 70
2021-01-12 17:00:00 9.8 18 Oeste 24 Oeste 0 1020.2 -- 71
2021-01-12 16:00:00 10 17 Oeste 21 Sudoeste 0 1019.8 -- 68
2021-01-12 15:00:00 10.1 15 Oeste 19 Sudoeste 0 1019.7 -- 67
2021-01-12 14:00:00 10.2 10 Oeste 17 Oeste 0 1020.2 -- 68
2021-01-12 13:00:00 10.1 9 Oeste 14 Oeste 0 1020.6 -- 74
2021-01-12 12:00:00 9.7 11 Oeste 14 Oeste 0 1020.8 -- 74
2021-01-12 11:00:00 9.1 6 Sur 10 Oeste 0 1020.3 -- 71
2021-01-12 10:00:00 8.4 8 Sudoeste 18 Sudoeste 0 1019.8 -- 76
2021-01-12 09:00:00 8.2 11 Sudeste 14 Sudoeste 0 1019.3 -- 72
2021-01-12 08:00:00 8.4 7 Sudeste 13 Sur 0 1019.1 -- 69
2021-01-12 07:00:00 8.5 6 Sudeste 17 Sudeste 0 1018.7 -- 68
2021-01-12 06:00:00 8.4 11 Sudeste 16 Sudeste 0 1018.5 -- 69
2021-01-12 05:00:00 8.4 12 Sudeste 15 Sudeste 0 1018.5 -- 71
2021-01-12 04:00:00 8.5 11 Sudeste 14 Sudeste 0 1018.8 -- 71
2021-01-12 03:00:00 9 10 Sudeste 14 Este 0 1018.5 -- 68
2021-01-12 02:00:00 8.9 9 Sudeste 14 Este 0 1018.5 -- 69
2021-01-12 01:00:00 9 12 Sudeste 17 Este 0 1018.4 -- 70
2021-01-12 00:00:00 9 9 Este 19 Sudeste 0 1018.6 -- 70
2021-01-11 23:00:00 9.2 14 Sudeste 31 Este 0 1018.2 -- 71
2021-01-11 22:00:00 9.6 24 Este 38 Este 0 1017.8 -- 69
2021-01-11 21:00:00 9.3 23 Este 35 Este 0 1017.7 -- 67
2021-01-11 20:00:00 9.2 24 Este 36 Este 0 1017.6 -- 70
2021-01-11 19:00:00 9.2 26 Este 35 Este 0 1017.2 -- 70
2021-01-11 18:00:00 9.2 24 Este 32 Este 0 1017.1 -- 69
2021-01-11 17:00:00 9.2 23 Este 36 Este 0 1016.9 -- 67
2021-01-11 16:00:00 9.4 22 Este 33 Este 0 1016.7 -- 68
2021-01-11 15:00:00 9.8 23 Este 39 Este 0 1016.5 -- 62
2021-01-11 14:00:00 9.1 24 Este 39 Este 0 1016.7 -- 66
2021-01-11 13:00:00 9.4 27 Este 42 Este 0 1017.4 -- 69
2021-01-11 12:00:00 9.4 31 Este 42 Este 0 1017.5 -- 67
2021-01-11 11:00:00 9.3 30 Este 43 Este 0 1017.3 -- 65
2021-01-11 10:00:00 9 28 Este 44 Este 0 1016.6 -- 69
2021-01-11 09:00:00 9 35 Este 51 Este 0 1015.9 -- 66
2021-01-11 08:00:00 8.8 40 Este 51 Este 0 1015.6 -- 63
2021-01-11 07:00:00 8.9 36 Este 51 Este 0 1015.4 -- 69
2021-01-11 06:00:00 8.6 34 Este 60 Este 0 1015.2 -- 70
2021-01-11 05:00:00 9 42 Este 63 Este 0 1015.1 -- 61
2021-01-11 04:00:00 9.3 41 Este 56 Este 0 1014.9 -- 63
2021-01-11 03:00:00 9 44 Este 61 Este 0 1014.7 -- 59
2021-01-11 02:00:00 9 45 Este 65 Nordeste 0 1014.6 -- 63
2021-01-11 01:00:00 8.9 53 Este 67 Este 0 1014.5 -- 60
2021-01-11 00:00:00 8.8 57 Este 68 Este 0 1014.7 -- 61
2021-01-10 23:00:00 9 53 Este 71 Nordeste 0 1014.6 -- 60
2021-01-10 22:00:00 8.8 53 Este 67 Este 0 1014.5 -- 61
2021-01-10 21:00:00 8.9 55 Este 69 Este 0 1014 -- 64
2021-01-10 20:00:00 8.9 52 Este 68 Este 0 1013.5 -- 65
2021-01-10 19:00:00 8.8 51 Este 70 Este 0 1012.9 -- 65
2021-01-10 18:00:00 8.7 52 Este 69 Este 0 1012.4 -- 59
2021-01-10 17:00:00 8.9 54 Este 69 Este 0 1011.9 -- 65
2021-01-10 16:00:00 8.9 53 Este 69 Este 0 1011.4 -- 64
2021-01-10 15:00:00 8.8 49 Este 71 Este 0 1010.8 -- 65
2021-01-10 14:00:00 9.1 51 Este 72 Este 0 1010.8 -- 59
2021-01-10 13:00:00 9.1 52 Este 71 Este 0 1011.2 -- 66
2021-01-10 12:00:00 8.9 55 Este 74 Este 0 1011.1 -- 59
2021-01-10 11:00:00 8.9 55 Este 78 Este 0 1010.7 -- 62
2021-01-10 10:00:00 8.7 61 Nordeste 75 Este 0 1009.3 -- 65
2021-01-10 09:00:00 8.4 56 Este 78 Este 0 1008.7 -- 65
2021-01-10 08:00:00 8.5 61 Nordeste 82 Nordeste 0 1007.8 -- 65
2021-01-10 07:00:00 8.6 65 Este 82 Nordeste 0 1007 -- 67
2021-01-10 06:00:00 8.6 66 Nordeste 87 Nordeste 0 1006.6 -- 67
2021-01-10 05:00:00 9 65 Nordeste 84 Nordeste 0 1006.1 -- 72
2021-01-10 04:00:00 8.8 63 Nordeste 90 Nordeste 0 1006 -- 70
2021-01-10 03:00:00 9 69 Nordeste 90 Nordeste 0 1005.5 -- 70
2021-01-10 02:00:00 7.9 60 Este 93 Nordeste 0 1005.4 -- 81
2021-01-10 01:00:00 9.2 76 Nordeste 97 Nordeste 0 1004.7 -- 66
2021-01-10 00:00:00 9.1 70 Nordeste 102 Nordeste 0.2 1004.2 -- 65
2021-01-09 23:00:00 8.8 74 Nordeste 111 Nordeste 0.2 1003.8 -- 72
2021-01-09 22:00:00 8.3 67 Nordeste 98 Nordeste 0 1003.4 -- 73
2021-01-09 21:00:00 8.4 69 Nordeste 92 Este 0 1003.5 -- 72
2021-01-09 20:00:00 8 71 Nordeste 93 Nordeste 0 1003.1 -- 70
2021-01-09 19:00:00 7.7 63 Nordeste 95 Nordeste 0 1002.6 -- 70
2021-01-09 18:00:00 7.3 55 Nordeste 85 Nordeste 0 1002.9 -- 73
2021-01-09 17:00:00 7.9 59 Nordeste 97 Nordeste 0.2 1002.4 -- 65
2021-01-09 16:00:00 8.1 69 Nordeste 85 Este 0 1001.9 -- 61
2021-01-09 15:00:00 7.7 59 Este 100 Nordeste 0 1001.8 -- 70
2021-01-09 14:00:00 8.1 63 Este 83 Este 0 1001.5 -- 64
2021-01-09 13:00:00 8.5 58 Nordeste 91 Este 0 1002.1 -- 62
2021-01-09 12:00:00 8.4 58 Este 75 Este 0.2 1002.6 -- 68
2021-01-09 11:00:00 6.7 48 Nordeste 90 Nordeste 0.2 1002.9 -- 80
2021-01-09 10:00:00 7.3 31 Este 59 Sudeste 0 1002.4 -- 79
2021-01-09 09:00:00 7.9 57 Este 75 Este 0.2 1001.5 -- 64
2021-01-09 08:00:00 6.6 31 Este 84 Este 2.2 1001.8 -- 75
2021-01-09 07:00:00 7.4 30 Este 46 Este 0 1001.3 -- 72
2021-01-09 06:00:00 7.3 28 Este 42 Este 0 1001.6 -- 72
2021-01-09 05:00:00 6.2 30 Nordeste 48 Este 1 1001.8 -- 89
2021-01-09 04:00:00 5.7 44 Este 61 Nordeste 0.4 1002.2 -- 90
2021-01-09 03:00:00 4.9 12 Sudeste 27 Sudeste 0.2 1002.1 -- 94
2021-01-09 02:00:00 4.2 14 Sudeste 32 Sudeste 1 1002.4 -- 100
2021-01-09 01:00:00 6.7 24 Nordeste 39 Nordeste 0 1002 -- 80
2021-01-09 00:00:00 5.4 24 Nordeste 43 Nordeste 1.6 1002.6 -- 92
2021-01-08 23:00:00 6.2 23 Nordeste 45 Nordeste 0.4 1003 -- 86
2021-01-08 22:00:00 6.5 20 Este 53 Nordeste 1.2 1003 -- 78
2021-01-08 21:00:00 7.3 19 Este 35 Este 0 1002.9 -- 70
2021-01-08 20:00:00 7.6 27 Nordeste 39 Este 0 1002.9 -- 71
2021-01-08 19:00:00 7.4 24 Este 36 Este 0 1003 -- 73
2021-01-08 18:00:00 7.3 27 Este 50 Este 0 1003.3 -- 72
2021-01-08 17:00:00 7.8 19 Este 32 Sudeste 0 1003.3 -- 69
2021-01-08 16:00:00 8.1 20 Este 28 Sudeste 0 1003.3 -- 66
2021-01-08 15:00:00 8.2 17 Sudeste 33 Este 0 1003.8 -- 65
2021-01-08 14:00:00 8 23 Este 38 Este 0 1004.4 -- 68
2021-01-08 13:00:00 8.5 23 Este 32 Este 0 1005.2 -- 65
2021-01-08 12:00:00 8.2 27 Este 36 Este 0 1005.9 -- 62
2021-01-08 11:00:00 7.4 19 Sudeste 26 Sudeste 0 1006.3 -- 67
2021-01-08 10:00:00 6.6 18 Sudeste 33 Sudeste 0 1006 -- 73
2021-01-08 09:00:00 6 18 Sudeste 29 Sudeste 0 1005.5 -- 75
2021-01-08 08:00:00 5.6 12 Sudeste 17 Sudeste 0 1005.4 -- 78
2021-01-08 07:00:00 5.6 13 Sudeste 22 Sudeste 0 1005.3 -- 74
2021-01-08 06:00:00 5.8 11 Sudeste 22 Sudeste 0 1005.5 -- 77
2021-01-08 05:00:00 5.9 14 Sudeste 33 Este 0.4 1005.5 -- 84
2021-01-08 04:00:00 6.2 25 Este 39 Este 1.4 1005.9 -- 90
2021-01-08 03:00:00 5.7 30 Este 52 Este 0.4 1006.2 -- 89
2021-01-08 02:00:00 6.7 36 Este 48 Este 0.8 1005.9 -- 82
2021-01-08 01:00:00 5.9 10 Este 21 Sudeste 0 1006 -- 86
2021-01-08 00:00:00 6.2 20 Sudeste 33 Este 0 1006.3 -- 91
2021-01-07 23:00:00 6.9 22 Este 50 Este 0.2 1006.1 -- 78
2021-01-07 22:00:00 6.2 11 Sudeste 37 Este 1.2 1005.8 -- 87
2021-01-07 21:00:00 6.5 9 Sudeste 28 Sudeste 0.6 1005.8 -- 89
2021-01-07 20:00:00 6.5 9 Sudeste 27 Sudeste 0 1005.3 -- 88
2021-01-07 19:00:00 7.5 22 Este 42 Nordeste 0.2 1004.9 -- 81
2021-01-07 18:00:00 7.5 26 Nordeste 49 Nordeste 0 1004.7 -- 87
2021-01-07 17:00:00 6.8 26 Nordeste 53 Nordeste 1.6 1004.5 -- 90
2021-01-07 16:00:00 7.2 24 Nordeste 45 Nordeste 1 1004.1 -- 93
2021-01-07 15:00:00 8.4 19 Nordeste 33 Nordeste 0 1004 -- 75
2021-01-07 14:00:00 8 14 Este 39 Nordeste 0 1004.3 -- 78
2021-01-07 13:00:00 7.2 30 Nordeste 55 Nordeste 0.2 1004.7 -- 80
2021-01-07 12:00:00 8.1 24 Nordeste 44 Nordeste 0 1004.9 -- 80
2021-01-07 11:00:00 7.2 30 Este 46 Nordeste 0 1004.9 -- 76
2021-01-07 10:00:00 7.5 28 Nordeste 51 Nordeste 0.2 1004.4 -- 78
2021-01-07 09:00:00 5.2 14 Sudeste 49 Este 5 1004.1 -- 82
2021-01-07 08:00:00 5.1 16 Sur 23 Sur 0 1003.7 -- 93
2021-01-07 07:00:00 5.8 17 Sudeste 30 Sudeste 0 1003.6 -- 89
2021-01-07 06:00:00 5.7 8 Sudoeste 19 Norte 0.8 1003.5 -- 100
2021-01-07 05:00:00 6 4 Sudoeste 10 Nordeste 0 1003.7 -- 94
2021-01-07 04:00:00 6 5 Noroeste 20 Oeste 0.4 1003.8 -- 96
2021-01-07 03:00:00 6 13 Oeste 21 Oeste 1 1003.9 -- 92
2021-01-07 02:00:00 5.5 12 Sudoeste 23 Sur 0.2 1004.2 -- 100
2021-01-07 01:00:00 5.9 20 Oeste 25 Oeste 0.2 1004.6 -- 99
2021-01-07 00:00:00 5 14 Sur 21 Sudeste 0 1004.6 -- 89
2021-01-06 23:00:00 5.3 12 Sudeste 20 Sudeste 0 1004.9 -- 96
2021-01-06 22:00:00 6 9 Noroeste 21 Sudeste 0.2 1005.2 -- 87
2021-01-06 21:00:00 5.3 11 Sur 36 Este 1 1005.2 -- 85
2021-01-06 20:00:00 5.7 17 Sudeste 25 Sur 0 1005 -- 79
2021-01-06 19:00:00 6 19 Sudeste 31 Este 0 1004.6 -- 82
2021-01-06 18:00:00 7 25 Este 41 Este 0 1004.4 -- 74
2021-01-06 17:00:00 7.9 10 Este 19 Este 0 1004.3 -- 72
2021-01-06 16:00:00 8.2 4 Este 9 Sudeste 0 1004.3 -- 73
2021-01-06 15:00:00 7.4 3 Nordeste 12 Norte 0 1004.4 -- 75
2021-01-06 14:00:00 8.1 4 Noroeste 16 Sudeste 0 1004.6 -- 80
2021-01-06 13:00:00 7.3 13 Sudeste 27 Este 0 1005.2 -- 82
2021-01-06 12:00:00 6 14 Sudeste 31 Sudeste 0.2 1005.7 -- 88
2021-01-06 11:00:00 5.4 17 Sudeste 27 Sudeste 0 1006 -- 89
2021-01-06 10:00:00 4.5 14 Sudeste 35 Este 0.8 1005.4 -- 97
2021-01-06 09:00:00 5.2 13 Sudeste 20 Sur 0 1005 -- 92
2021-01-06 08:00:00 4.8 18 Sur 23 Sur 0 1004.3 -- 90
2021-01-06 07:00:00 5 16 Sur 32 Este 0 1004 -- 91
2021-01-06 06:00:00 6.1 36 Nordeste 56 Nordeste 0.8 1003.6 -- 83
2021-01-06 05:00:00 7.1 18 Nordeste 54 Este 0 1003.7 -- 79
2021-01-06 04:00:00 6.5 33 Este 47 Este 0 1003.6 -- 84
2021-01-06 03:00:00 5.4 6 Sudeste 17 Oeste 0.8 1003.8 -- 97
2021-01-06 02:00:00 5.2 13 Sudeste 26 Sudeste 0.2 1003.9 -- 94
2021-01-06 01:00:00 5.1 13 Sudeste 44 Este 1.6 1004 -- 100
2021-01-06 00:00:00 6 17 Sur 29 Sudeste 0.2 1003.7 -- 100
2021-01-05 23:00:00 6.4 23 Este 66 Este 2 1003.7 -- 89
2021-01-05 22:00:00 6.1 14 Este 57 Este 0.8 1003.6 -- 87
2021-01-05 21:00:00 7 21 Este 52 Este 1.2 1003.5 -- 85
2021-01-05 20:00:00 6.2 30 Nordeste 53 Nordeste 3.2 1003 -- 99
2021-01-05 19:00:00 7.4 21 Este 40 Este 0 1002.7 -- 86
2021-01-05 18:00:00 7.8 31 Este 42 Este 0 1002.2 -- 82
2021-01-05 17:00:00 7.2 35 Este 49 Este 0.4 1001.9 -- 90
2021-01-05 16:00:00 7.9 22 Nordeste 38 Nordeste 0.2 1001.9 -- 75
2021-01-05 15:00:00 7.7 19 Nordeste 36 Norte 0 1001.8 -- 79
2021-01-05 14:00:00 7.4 27 Nordeste 40 Nordeste 0.2 1002.2 -- 78
2021-01-05 13:00:00 8.6 14 Nordeste 36 Nordeste 0 1002.8 -- 76
2021-01-05 12:00:00 8.4 10 Norte 28 Sudoeste 0 1003.4 -- 74
2021-01-05 11:00:00 6.3 21 Oeste 27 Oeste 0.4 1003.2 -- 100
2021-01-05 10:00:00 6.5 12 Oeste 27 Oeste 0.6 1003 -- 98
2021-01-05 09:00:00 6.4 16 Oeste 28 Oeste 0.6 1002.6 -- 100
2021-01-05 08:00:00 5.9 21 Oeste 34 Sudoeste 1.6 1002.6 -- 100
2021-01-05 07:00:00 5.7 23 Oeste 30 Oeste 1.6 1002.5 -- 100
2021-01-05 06:00:00 6.2 18 Oeste 25 Sudoeste 0.2 1002.5 -- 98
2021-01-05 05:00:00 5.9 21 Oeste 34 Oeste 0.6 1003 -- 97
2021-01-05 04:00:00 6.6 8 Sudoeste 24 Oeste 0 1003.5 -- 79
2021-01-05 03:00:00 6.1 14 Oeste 26 Oeste 0 1003.4 -- 85
2021-01-05 02:00:00 5.7 22 Oeste 31 Oeste 0 1003.4 -- 90
2021-01-05 01:00:00 5.1 24 Oeste 28 Oeste 0 1003.6 -- 95
2021-01-05 00:00:00 5.6 19 Oeste 33 Oeste 0 1003.7 -- 93
2021-01-04 23:00:00 5.9 22 Oeste 28 Oeste 0 1003.7 -- 86
2021-01-04 22:00:00 5.4 22 Oeste 29 Oeste 0 1003.6 -- 93
2021-01-04 21:00:00 5 23 Oeste 28 Oeste 0.2 1003.4 -- 93
2021-01-04 20:00:00 5.1 20 Oeste 26 Oeste 0 1003.6 -- 90
2021-01-04 19:00:00 5.1 16 Oeste 41 Norte 1.8 1003.8 -- 93
2021-01-04 18:00:00 5.7 22 Oeste 28 Sudoeste 0 1003.4 -- 92
2021-01-04 17:00:00 5.6 11 Sudoeste 27 Oeste 0.2 1003.2 -- 92
2021-01-04 16:00:00 6.2 23 Oeste 37 Oeste 0 1002.6 -- 95
2021-01-04 15:00:00 6 23 Oeste 28 Oeste 0 1002.9 -- 96
2021-01-04 14:00:00 5.1 11 Sur 29 Sur 0.4 1003.6 -- 79
2021-01-04 13:00:00 6 12 Sur 30 Oeste 0.2 1003.4 -- 93
2021-01-04 12:00:00 5.2 9 Sudeste 25 Oeste 1.2 1003.8 -- 86
2021-01-04 11:00:00 4.9 17 Oeste 33 Sudoeste 1.6 1003.5 -- 95
2021-01-04 10:00:00 5.7 15 Sudoeste 29 Oeste 0.4 1002.8 -- 84
2021-01-04 09:00:00 4.9 18 Sudoeste 39 Oeste 1.2 1002.7 -- 93
2021-01-04 08:00:00 5.8 21 Oeste 27 Oeste 0.2 1002.4 -- 92
2021-01-04 07:00:00 5.7 5 Sudeste 34 Oeste 1 1002.5 -- 84
2021-01-04 06:00:00 5.8 21 Oeste 32 Oeste 0 1002.4 -- 87
2021-01-04 05:00:00 7.2 16 Noroeste 37 Noroeste 0 1002.8 -- 75
2021-01-04 04:00:00 7.2 15 Noroeste 47 Norte 0.2 1002.8 -- 75
2021-01-04 03:00:00 7.9 24 Noroeste 35 Noroeste 0 1002.9 -- 71
2021-01-04 02:00:00 7.6 16 Noroeste 40 Noroeste 0 1003.3 -- 73
2021-01-04 01:00:00 7.2 17 Noroeste 46 Norte 0 1003.8 -- 69
2021-01-04 00:00:00 7.5 25 Norte 46 Norte 0 1003.8 -- 72
2021-01-03 23:00:00 7.3 23 Norte 51 Norte 0.2 1004.4 -- 77
2021-01-03 22:00:00 7.7 32 Oeste 41 Oeste 1.2 1004.2 -- 74
2021-01-03 21:00:00 6.8 40 Norte 58 Norte 0.4 1005 -- 73
2021-01-03 20:00:00 8.4 19 Noroeste 36 Norte 0 1004.9 -- 63
2021-01-03 19:00:00 8.2 18 Norte 38 Norte 0 1005 -- 73
2021-01-03 18:00:00 8.5 26 Norte 46 Norte 0.2 1004.7 -- 67
2021-01-03 17:00:00 8.8 22 Norte 41 Norte 0 1004.4 -- 71
2021-01-03 16:00:00 8.3 20 Norte 37 Noroeste 0 1004.7 -- 67
2021-01-03 15:00:00 6.9 16 Norte 53 Norte 1.2 1005 -- 81
2021-01-03 14:00:00 8.5 13 Noroeste 43 Norte 0.2 1005.6 -- 82
2021-01-03 13:00:00 7.8 34 Oeste 41 Oeste 1 1006 -- 94
2021-01-03 12:00:00 6.6 20 Noroeste 71 Noroeste 2.4 1006.7 -- 97
2021-01-03 11:00:00 8.1 32 Noroeste 60 Noroeste 0.2 1006.5 -- 86
2021-01-03 10:00:00 9.4 33 Noroeste 44 Noroeste 0.2 1006.2 -- 59
2021-01-03 09:00:00 9.2 26 Noroeste 40 Noroeste 0 1006.5 -- 69
2021-01-03 08:00:00 8.8 17 Noroeste 37 Noroeste 0 1006.9 -- 69
2021-01-03 07:00:00 8.5 23 Noroeste 42 Norte 0 1007 -- 70
2021-01-03 06:00:00 8.5 19 Noroeste 46 Norte 0 1007.2 -- 73
2021-01-03 05:00:00 8.2 22 Norte 40 Norte 0 1007.6 -- 85
2021-01-03 04:00:00 7.7 8 Oeste 29 Oeste 0.6 1008.1 -- 88
2021-01-03 03:00:00 6.8 15 Noroeste 27 Noroeste 3.2 1008.7 -- 98
2021-01-03 02:00:00 7.3 17 Oeste 41 Norte 0.6 1008.7 -- 83
2021-01-03 01:00:00 7.4 14 Oeste 33 Oeste 1.2 1009.2 -- 97
2021-01-03 00:00:00 7.3 23 Oeste 26 Oeste 0 1009.4 -- 91
2021-01-02 23:00:00 7.3 14 Oeste 19 Oeste 0 1009.6 -- 89
2021-01-02 22:00:00 7.9 9 Norte 32 Nordeste 1.2 1009.8 -- 78
2021-01-02 21:00:00 7.9 12 Este 41 Norte 0 1009.7 -- 79
2021-01-02 20:00:00 7.2 5 Este 50 Nordeste 1.2 1009.7 -- 81
2021-01-02 19:00:00 8.7 12 Nordeste 24 Nordeste 0 1009.4 -- 75
2021-01-02 18:00:00 8.7 17 Norte 32 Nordeste 0 1009 -- 69
2021-01-02 17:00:00 9 17 Nordeste 29 Nordeste 0 1008.7 -- 73
2021-01-02 16:00:00 9.6 9 Oeste 15 Oeste 0 1008.3 -- 75
2021-01-02 15:00:00 8.1 8 Este 16 Sudeste 0 1008.2 -- 78
2021-01-02 14:00:00 6.6 14 Sudeste 30 Este 0.6 1008.5 -- 97